createdAt,value
2022-11-20T00:03:00.259Z,3.30
2022-11-20T00:07:52.086Z,3.73
2022-11-20T00:12:43.621Z,3.12
2022-11-20T00:17:35.312Z,3.15
2022-11-20T00:22:26.839Z,3.10
2022-11-20T00:27:18.406Z,3.70
2022-11-20T00:32:10.017Z,3.68
2022-11-20T00:37:01.592Z,3.56
2022-11-20T00:41:53.112Z,3.48
2022-11-20T00:46:44.683Z,3.74
2022-11-20T00:51:36.322Z,3.65
2022-11-20T00:56:28.353Z,3.82
2022-11-20T01:01:26.392Z,3.76
2022-11-20T01:06:24.543Z,3.67
2022-11-20T01:11:25.334Z,3.58
2022-11-20T01:16:19.832Z,3.69
2022-11-20T01:21:23.921Z,3.84
2022-11-20T01:26:19.346Z,3.77
2022-11-20T01:31:17.310Z,4.08
2022-11-20T01:36:09.832Z,3.84
2022-11-20T01:41:01.586Z,3.42
2022-11-20T01:46:01.090Z,3.79
2022-11-20T01:50:55.592Z,3.25
2022-11-20T01:55:52.379Z,3.42
2022-11-20T02:00:44.015Z,3.57
2022-11-20T02:06:06.855Z,3.32
2022-11-20T02:10:58.533Z,3.78
2022-11-20T02:15:50.945Z,3.67
2022-11-20T02:20:47.776Z,3.64
2022-11-20T02:25:42.118Z,3.06
2022-11-20T02:30:33.664Z,3.54
2022-11-20T02:35:26.094Z,3.59
2022-11-20T02:40:17.854Z,3.43
2022-11-20T02:45:09.905Z,3.35
2022-11-20T02:50:01.640Z,3.62
2022-11-20T02:54:54.205Z,3.35
2022-11-20T02:59:45.733Z,3.81
2022-11-20T03:04:37.402Z,3.03
2022-11-20T03:09:28.966Z,3.48
2022-11-20T03:14:20.534Z,3.55
2022-11-20T03:19:13.064Z,3.51
2022-11-20T03:24:05.393Z,3.54
2022-11-20T03:28:59.908Z,3.51
2022-11-20T03:33:51.776Z,3.55
2022-11-20T03:38:43.487Z,3.38
2022-11-20T03:43:35.892Z,3.13
2022-11-20T03:48:28.383Z,3.62
2022-11-20T03:53:20.800Z,3.71
2022-11-20T03:58:12.493Z,3.74
2022-11-20T04:03:04.858Z,3.62
2022-11-20T04:07:56.491Z,3.70
2022-11-20T04:12:48.111Z,3.16
2022-11-20T04:17:39.689Z,3.40
2022-11-20T04:22:31.196Z,3.08
2022-11-20T04:27:22.857Z,2.86
2022-11-20T04:32:14.364Z,2.53
2022-11-20T04:37:06.122Z,3.00
2022-11-20T04:42:16.332Z,3.21
2022-11-20T04:47:07.955Z,3.24
2022-11-20T04:51:59.555Z,3.40
2022-11-20T04:56:51.267Z,3.42
2022-11-20T05:01:43.993Z,3.85
2022-11-20T05:06:35.615Z,4.04
2022-11-20T05:11:30.833Z,4.23
2022-11-20T05:16:24.949Z,4.26
2022-11-20T05:21:17.861Z,4.18
2022-11-20T05:26:15.039Z,4.17
2022-11-20T05:31:09.931Z,4.08
2022-11-20T05:36:02.275Z,3.64
2022-11-20T05:40:55.417Z,4.13
2022-11-20T05:45:56.136Z,4.14
2022-11-20T05:50:48.869Z,3.84
2022-11-20T05:55:40.522Z,3.62
2022-11-20T06:00:32.044Z,4.24
2022-11-20T06:05:23.683Z,3.92
2022-11-20T06:10:15.298Z,3.73
2022-11-20T06:15:07.772Z,4.24
2022-11-20T06:19:59.389Z,3.64
2022-11-20T06:24:51.693Z,4.24
2022-11-20T06:29:43.308Z,4.27
2022-11-20T06:34:35.847Z,3.89
2022-11-20T06:39:27.420Z,4.31
2022-11-20T06:44:18.957Z,4.30
2022-11-20T06:49:10.526Z,4.29
2022-11-20T06:54:03.017Z,4.27
2022-11-20T06:58:54.569Z,4.26
2022-11-20T07:03:50.028Z,4.31
2022-11-20T07:08:44.486Z,2.36
2022-11-20T07:13:37.140Z,3.81
2022-11-20T07:18:29.037Z,4.41
2022-11-20T07:23:20.979Z,4.39
2022-11-20T07:28:12.570Z,3.46
2022-11-20T07:33:04.113Z,4.68
2022-11-20T07:37:55.654Z,4.64
2022-11-20T07:42:54.881Z,3.69
2022-11-20T07:47:46.704Z,4.53
2022-11-20T07:52:39.236Z,4.74
2022-11-20T07:57:31.873Z,5.02
2022-11-20T08:02:24.398Z,5.05
2022-11-20T08:07:16.050Z,4.83
2022-11-20T08:12:27.381Z,4.94
2022-11-20T08:17:19.004Z,4.89
2022-11-20T08:22:10.757Z,5.06
2022-11-20T08:27:02.343Z,5.08
2022-11-20T08:31:55.757Z,5.16
2022-11-20T08:36:47.390Z,5.27
2022-11-20T08:41:39.006Z,4.84
2022-11-20T08:46:44.853Z,5.05
2022-11-20T08:51:38.028Z,5.32
2022-11-20T08:56:29.594Z,4.77
2022-11-20T09:01:22.706Z,5.57
2022-11-20T09:06:14.649Z,5.52
2022-11-20T09:11:07.012Z,5.79
2022-11-20T09:16:02.425Z,6.46
2022-11-20T09:20:58.628Z,5.40
2022-11-20T09:25:50.419Z,6.01
2022-11-20T09:30:42.010Z,6.28
2022-11-20T09:35:34.247Z,6.12
2022-11-20T09:40:30.405Z,6.57
2022-11-20T09:45:50.653Z,6.90
2022-11-20T09:51:19.945Z,6.75
2022-11-20T09:56:16.980Z,6.41
2022-11-20T10:01:22.048Z,6.45
2022-11-20T10:06:18.027Z,6.56
2022-11-20T10:11:46.016Z,6.73
2022-11-20T10:16:56.235Z,6.32
2022-11-20T10:21:53.717Z,6.51
2022-11-20T10:27:04.465Z,6.22
2022-11-20T10:32:04.610Z,5.45
2022-11-20T10:37:05.201Z,6.04
2022-11-20T10:41:58.777Z,5.85
2022-11-20T10:46:53.805Z,6.16
2022-11-20T10:52:27.846Z,5.95
2022-11-20T10:57:47.631Z,6.14
2022-11-20T11:02:50.142Z,5.97
2022-11-20T11:07:43.437Z,5.33
2022-11-20T11:12:36.908Z,5.46
2022-11-20T11:17:34.712Z,5.69
2022-11-20T11:22:34.390Z,6.03
2022-11-20T11:27:29.402Z,6.43
2022-11-20T11:32:27.763Z,6.73
2022-11-20T11:37:24.959Z,6.05
2022-11-20T11:42:20.349Z,6.42
2022-11-20T11:47:26.878Z,6.33
2022-11-20T11:52:22.057Z,5.82
2022-11-20T11:57:45.369Z,5.83
2022-11-20T12:02:46.037Z,5.92
2022-11-20T12:07:47.691Z,6.01
2022-11-20T12:12:45.934Z,5.69
2022-11-20T12:17:37.601Z,6.01
2022-11-20T12:22:44.616Z,5.90
2022-11-20T12:28:07.421Z,5.79
2022-11-20T12:33:30.233Z,5.97
2022-11-20T12:38:30.821Z,6.21
2022-11-20T12:43:44.004Z,5.40
2022-11-20T12:49:09.743Z,6.12
2022-11-20T12:54:25.533Z,6.37
2022-11-20T12:59:40.656Z,6.60
2022-11-20T13:04:35.165Z,6.46
2022-11-20T13:09:28.450Z,6.42
2022-11-20T13:14:43.404Z,5.64
2022-11-20T13:19:35.413Z,6.48
2022-11-20T13:24:32.063Z,6.73
2022-11-20T13:29:23.662Z,6.77
2022-11-20T13:34:26.843Z,6.51
2022-11-20T13:39:45.023Z,6.49
2022-11-20T13:44:43.824Z,6.29
2022-11-20T13:49:44.860Z,6.48
2022-11-20T13:54:39.603Z,6.53
2022-11-20T13:59:34.297Z,6.37
2022-11-20T14:04:37.194Z,6.25
2022-11-20T14:09:31.571Z,6.50
2022-11-20T14:14:31.424Z,6.37
2022-11-20T14:19:28.668Z,6.36
2022-11-20T14:24:25.854Z,6.16
2022-11-20T14:29:25.550Z,5.70
2022-11-20T14:34:21.451Z,6.26
2022-11-20T14:39:21.105Z,6.14
2022-11-20T14:44:12.709Z,5.97
2022-11-20T14:49:05.732Z,6.11
2022-11-20T14:53:57.349Z,6.02
2022-11-20T14:58:56.958Z,6.19
2022-11-20T15:04:01.573Z,6.15
2022-11-20T15:08:53.723Z,6.10
2022-11-20T15:13:45.369Z,6.04
2022-11-20T15:18:44.858Z,5.96
2022-11-20T15:23:36.593Z,5.81
2022-11-20T15:28:40.744Z,5.95
2022-11-20T15:33:33.536Z,5.90
2022-11-20T15:38:25.138Z,5.86
2022-11-20T15:43:16.736Z,5.76
2022-11-20T15:48:15.729Z,5.81
2022-11-20T15:53:09.154Z,5.92
2022-11-20T15:58:00.804Z,5.97
2022-11-20T16:02:52.791Z,5.92
2022-11-20T16:07:44.986Z,6.04
2022-11-20T16:12:55.664Z,5.80
2022-11-20T16:17:47.295Z,6.16
2022-11-20T16:22:38.928Z,5.26
2022-11-20T16:27:30.514Z,6.21
2022-11-20T16:32:22.067Z,6.17
2022-11-20T16:37:13.663Z,6.28
2022-11-20T16:42:05.380Z,5.12
2022-11-20T16:46:56.953Z,5.74
2022-11-20T16:51:48.628Z,6.25
2022-11-20T16:56:40.219Z,6.27
2022-11-20T17:01:32.898Z,5.99
2022-11-20T17:06:27.469Z,6.15
2022-11-20T17:11:19.977Z,6.17
2022-11-20T17:16:17.495Z,6.22
2022-11-20T17:21:09.104Z,6.04
2022-11-20T17:26:06.771Z,6.13
2022-11-20T17:31:02.858Z,6.06
2022-11-20T17:35:54.411Z,6.05
2022-11-20T17:40:46.262Z,6.04
2022-11-20T17:45:37.879Z,5.98
2022-11-20T17:50:29.449Z,5.63
2022-11-20T17:55:21.845Z,5.83
2022-11-20T18:00:17.130Z,5.97
2022-11-20T18:05:08.917Z,5.80
2022-11-20T18:10:00.527Z,5.70
2022-11-20T18:14:52.166Z,5.87
2022-11-20T18:20:01.107Z,6.32
2022-11-20T18:24:58.377Z,6.23
2022-11-20T18:29:51.944Z,6.23
2022-11-20T18:34:44.027Z,6.07
2022-11-20T18:39:37.044Z,6.42
2022-11-20T18:44:50.264Z,6.46
2022-11-20T18:49:50.784Z,6.09
2022-11-20T18:54:42.513Z,5.57
2022-11-20T18:59:34.089Z,5.58
2022-11-20T19:04:26.000Z,6.31
2022-11-20T19:09:17.923Z,6.18
2022-11-20T19:14:09.892Z,5.98
2022-11-20T19:19:03.726Z,7.10
2022-11-20T19:23:58.340Z,6.94
2022-11-20T19:28:50.291Z,7.15
2022-11-20T19:33:42.095Z,7.33
2022-11-20T19:38:33.821Z,7.09
2022-11-20T19:43:25.659Z,7.34
2022-11-20T19:48:17.274Z,7.64
2022-11-20T19:53:11.244Z,7.66
2022-11-20T19:58:03.931Z,7.44
2022-11-20T20:02:55.612Z,7.78
2022-11-20T20:07:47.308Z,7.84
2022-11-20T20:12:38.956Z,7.83
2022-11-20T20:17:30.564Z,7.71
2022-11-20T20:22:22.125Z,8.02
2022-11-20T20:27:13.706Z,7.98
2022-11-20T20:32:05.919Z,7.94
2022-11-20T20:36:57.807Z,6.82
2022-11-20T20:41:49.848Z,8.21
2022-11-20T20:46:41.946Z,8.09
2022-11-20T20:51:34.096Z,7.84
2022-11-20T20:56:25.986Z,8.29
2022-11-20T21:01:19.588Z,8.30
2022-11-20T21:06:11.953Z,8.25
2022-11-20T21:11:14.841Z,8.30
2022-11-20T21:16:07.350Z,8.23
2022-11-20T21:21:18.265Z,6.98
2022-11-20T21:26:10.169Z,8.13
2022-11-20T21:31:18.378Z,8.16
2022-11-20T21:36:13.301Z,7.94
2022-11-20T21:41:06.914Z,7.98
